createdAt,value
2023-06-19T00:02:44.166Z,46.78
2023-06-19T00:05:45.967Z,46.69
2023-06-19T00:08:47.656Z,46.54
2023-06-19T00:11:49.376Z,46.48
2023-06-19T00:14:50.970Z,46.51
2023-06-19T00:17:52.868Z,46.59
2023-06-19T00:20:57.156Z,46.44
2023-06-19T00:23:58.858Z,46.44
2023-06-19T00:27:04.074Z,46.39
2023-06-19T00:30:07.134Z,46.73
2023-06-19T00:33:09.799Z,46.69
2023-06-19T00:36:12.490Z,46.78
2023-06-19T00:39:14.107Z,46.72
2023-06-19T00:42:15.763Z,46.69
2023-06-19T00:45:17.341Z,46.69
2023-06-19T00:48:19.098Z,46.68
2023-06-19T00:51:20.712Z,46.53
2023-06-19T00:54:22.924Z,46.59
2023-06-19T00:57:24.542Z,46.42
2023-06-19T01:00:26.348Z,46.55
2023-06-19T01:03:28.180Z,46.62
2023-06-19T01:06:39.543Z,46.66
2023-06-19T01:09:49.668Z,46.52
2023-06-19T01:12:59.953Z,46.58
2023-06-19T01:16:03.867Z,46.46
2023-06-19T01:19:10.905Z,46.46
2023-06-19T01:22:22.984Z,46.58
2023-06-19T01:25:25.522Z,46.67
2023-06-19T01:28:27.394Z,46.47
2023-06-19T01:31:34.810Z,46.70
2023-06-19T01:34:40.924Z,46.83
2023-06-19T01:37:44.003Z,46.92
2023-06-19T01:40:46.477Z,46.85
2023-06-19T01:43:48.780Z,46.74
2023-06-19T01:46:51.997Z,46.75
2023-06-19T01:49:53.878Z,46.72
2023-06-19T01:52:56.932Z,46.70
2023-06-19T01:55:59.943Z,46.78
2023-06-19T01:59:01.571Z,46.99
2023-06-19T02:02:05.169Z,47.12
2023-06-19T02:05:07.067Z,47.05
2023-06-19T02:08:08.915Z,47.27
2023-06-19T02:11:10.624Z,47.15
2023-06-19T02:14:12.597Z,47.10
2023-06-19T02:17:14.254Z,47.82
2023-06-19T02:20:16.548Z,48.15
2023-06-19T02:23:18.168Z,48.25
2023-06-19T02:26:19.749Z,48.33
2023-06-19T02:29:21.589Z,48.19
2023-06-19T02:32:23.269Z,48.15
2023-06-19T02:35:24.890Z,47.97
2023-06-19T02:38:27.163Z,47.96
2023-06-19T02:41:28.735Z,48.18
2023-06-19T02:44:30.295Z,47.97
2023-06-19T02:47:34.903Z,48.19
2023-06-19T02:50:36.601Z,48.15
2023-06-19T02:53:38.229Z,48.18
2023-06-19T02:56:40.041Z,48.17
2023-06-19T02:59:41.847Z,48.13
2023-06-19T03:02:45.312Z,47.96
2023-06-19T03:05:47.030Z,48.09
2023-06-19T03:08:48.681Z,48.03
2023-06-19T03:11:50.302Z,48.22
2023-06-19T03:14:51.973Z,48.13
2023-06-19T03:17:54.547Z,47.86
2023-06-19T03:20:56.227Z,47.98
2023-06-19T03:23:58.091Z,47.90
2023-06-19T03:26:59.682Z,47.95
2023-06-19T03:30:01.449Z,47.85
2023-06-19T03:33:03.116Z,48.13
2023-06-19T03:36:05.244Z,47.87
2023-06-19T03:39:07.014Z,47.95
2023-06-19T03:42:09.199Z,48.15
2023-06-19T03:45:11.079Z,48.01
2023-06-19T03:48:12.932Z,47.89
2023-06-19T03:51:14.602Z,47.84
2023-06-19T03:54:16.180Z,47.84
2023-06-19T03:57:17.853Z,47.79
2023-06-19T04:00:19.863Z,47.75
2023-06-19T04:03:21.835Z,47.75
2023-06-19T04:06:23.936Z,47.62
2023-06-19T04:09:26.071Z,47.60
2023-06-19T04:12:27.696Z,47.45
2023-06-19T04:15:29.357Z,47.39
2023-06-19T04:18:30.993Z,47.26
2023-06-19T04:21:32.604Z,47.32
2023-06-19T04:24:34.511Z,47.17
2023-06-19T04:27:36.257Z,47.00
2023-06-19T04:30:40.483Z,47.02
2023-06-19T04:33:43.112Z,46.89
2023-06-19T04:36:45.628Z,46.91
2023-06-19T04:39:47.599Z,46.84
2023-06-19T04:42:49.261Z,46.77
2023-06-19T04:45:50.895Z,46.81
2023-06-19T04:48:52.553Z,46.76
2023-06-19T04:51:54.197Z,46.78
2023-06-19T04:54:55.783Z,46.77
2023-06-19T04:57:57.453Z,46.62
2023-06-19T05:00:59.110Z,46.49
2023-06-19T05:04:00.866Z,46.46
2023-06-19T05:07:03.228Z,46.39
2023-06-19T05:10:05.498Z,46.16
2023-06-19T05:13:07.187Z,46.25
2023-06-19T05:16:08.886Z,46.17
2023-06-19T05:19:10.595Z,46.02
2023-06-19T05:22:12.245Z,46.03
2023-06-19T05:25:13.987Z,45.96
2023-06-19T05:28:15.589Z,45.94
2023-06-19T05:31:17.241Z,45.94
2023-06-19T05:34:18.872Z,46.36
2023-06-19T05:37:20.522Z,46.22
2023-06-19T05:40:22.424Z,46.31
2023-06-19T05:43:25.782Z,46.30
2023-06-19T05:46:27.393Z,46.22
2023-06-19T05:49:29.000Z,46.22
2023-06-19T05:52:30.679Z,46.12
2023-06-19T05:55:32.352Z,46.12
2023-06-19T05:58:34.073Z,46.00
2023-06-19T06:01:35.956Z,46.07
2023-06-19T06:04:37.950Z,45.94
2023-06-19T06:07:41.409Z,73.66
2023-06-19T06:10:44.566Z,72.08
2023-06-19T06:13:46.197Z,70.36
2023-06-19T06:16:47.867Z,69.26
2023-06-19T06:19:49.582Z,68.51
2023-06-19T06:22:51.324Z,68.42
2023-06-19T06:25:53.105Z,65.45
2023-06-19T06:28:55.769Z,66.75
2023-06-19T06:32:08.445Z,66.44
2023-06-19T06:35:10.354Z,63.71
2023-06-19T06:38:12.344Z,63.01
2023-06-19T06:41:14.007Z,64.56
2023-06-19T06:44:15.572Z,62.61
2023-06-19T06:47:17.164Z,66.45
2023-06-19T06:50:18.762Z,67.53
2023-06-19T06:53:20.372Z,63.72
2023-06-19T06:56:21.966Z,61.15
2023-06-19T06:59:24.170Z,59.79
2023-06-19T07:02:28.421Z,61.42
2023-06-19T07:05:31.103Z,58.00
2023-06-19T07:08:32.739Z,54.83
2023-06-19T07:11:34.477Z,53.42
2023-06-19T07:14:36.062Z,53.86
2023-06-19T07:17:37.740Z,53.88
2023-06-19T07:20:39.390Z,54.28
2023-06-19T07:23:42.084Z,50.73
2023-06-19T07:26:43.732Z,47.97
2023-06-19T07:29:45.430Z,49.97
2023-06-19T07:32:47.290Z,50.04
2023-06-19T07:35:48.991Z,48.05
2023-06-19T07:38:50.682Z,46.33
2023-06-19T07:41:52.259Z,48.71
2023-06-19T07:44:53.823Z,48.69
2023-06-19T07:47:57.156Z,48.07
2023-06-19T07:50:58.845Z,48.49
2023-06-19T07:54:00.546Z,46.24
2023-06-19T07:57:02.644Z,51.01
2023-06-19T08:00:23.525Z,48.86
2023-06-19T08:03:25.475Z,47.78
2023-06-19T08:06:27.252Z,43.60
2023-06-19T08:09:28.830Z,46.10
2023-06-19T08:12:30.869Z,45.01
2023-06-19T08:15:33.054Z,43.66
2023-06-19T08:18:34.686Z,43.29
2023-06-19T08:21:36.263Z,42.47
2023-06-19T08:24:40.134Z,41.25
2023-06-19T08:27:43.106Z,41.45
2023-06-19T08:30:46.792Z,39.56
2023-06-19T08:33:53.875Z,40.81
2023-06-19T08:36:56.534Z,42.30
2023-06-19T08:39:58.140Z,38.46
2023-06-19T08:42:59.916Z,38.27
2023-06-19T08:46:12.214Z,36.08
2023-06-19T08:49:14.695Z,41.40
2023-06-19T08:52:16.289Z,38.91
2023-06-19T08:55:18.010Z,37.45
2023-06-19T08:58:24.218Z,36.52
2023-06-19T09:01:27.945Z,38.36
2023-06-19T09:04:29.753Z,38.28
2023-06-19T09:07:31.660Z,35.61
2023-06-19T09:10:33.396Z,38.11
2023-06-19T09:13:36.271Z,37.79
2023-06-19T09:16:42.738Z,40.05
2023-06-19T09:19:51.752Z,38.54
2023-06-19T09:22:58.923Z,36.15
2023-06-19T09:26:00.556Z,35.71
2023-06-19T09:29:19.519Z,36.96
2023-06-19T09:32:28.045Z,38.67
2023-06-19T09:35:29.652Z,39.72
2023-06-19T09:38:40.088Z,36.24
2023-06-19T09:41:43.470Z,40.72
2023-06-19T09:44:48.849Z,38.37
2023-06-19T09:47:54.733Z,40.31
2023-06-19T09:51:06.615Z,41.27
2023-06-19T09:54:10.664Z,40.31
2023-06-19T09:57:12.284Z,37.31
2023-06-19T10:00:17.178Z,35.65
2023-06-19T10:03:19.226Z,36.16
2023-06-19T10:06:23.430Z,35.89
2023-06-19T10:09:25.047Z,32.31
2023-06-19T10:12:44.563Z,33.44
2023-06-19T10:15:46.179Z,32.97
2023-06-19T10:18:48.367Z,33.17
2023-06-19T10:21:52.548Z,34.96
2023-06-19T10:24:54.294Z,33.88
2023-06-19T10:27:56.173Z,33.79
2023-06-19T10:31:02.974Z,32.90
2023-06-19T10:34:05.093Z,34.23
2023-06-19T10:37:06.805Z,31.64
2023-06-19T10:40:10.876Z,28.66
2023-06-19T10:43:29.154Z,36.43
2023-06-19T10:46:36.875Z,31.16
2023-06-19T10:49:38.670Z,32.69
2023-06-19T10:52:45.001Z,28.91
2023-06-19T10:55:46.645Z,29.75
2023-06-19T10:58:48.383Z,29.41
2023-06-19T11:01:51.723Z,29.51
2023-06-19T11:04:55.579Z,29.13
2023-06-19T11:07:59.679Z,27.48
2023-06-19T11:11:01.320Z,29.10
2023-06-19T11:14:03.354Z,29.53
2023-06-19T11:17:05.384Z,30.03
2023-06-19T11:20:11.802Z,27.62
2023-06-19T11:23:14.245Z,28.29
2023-06-19T11:26:15.840Z,27.63
2023-06-19T11:29:19.618Z,28.95
2023-06-19T11:32:25.997Z,27.69
2023-06-19T11:35:35.598Z,29.01
2023-06-19T11:38:39.414Z,29.65
2023-06-19T11:41:42.501Z,27.94
2023-06-19T11:45:13.477Z,27.99
2023-06-19T11:48:15.198Z,26.85
2023-06-19T11:51:16.856Z,25.28
2023-06-19T11:54:24.629Z,26.40
2023-06-19T11:57:28.057Z,26.74
2023-06-19T12:00:30.038Z,25.66
2023-06-19T12:03:31.771Z,27.17
2023-06-19T12:06:33.628Z,27.50
2023-06-19T12:09:35.690Z,25.36
2023-06-19T12:12:39.030Z,26.36
2023-06-19T12:15:40.605Z,30.29
2023-06-19T12:18:42.983Z,27.37
2023-06-19T12:21:44.632Z,26.83
2023-06-19T12:24:46.268Z,27.40
2023-06-19T12:27:48.711Z,26.39
2023-06-19T12:30:54.098Z,25.91
2023-06-19T12:33:56.966Z,26.59
2023-06-19T12:37:05.938Z,25.32
2023-06-19T12:40:11.925Z,26.14
2023-06-19T12:43:13.468Z,26.89
2023-06-19T12:46:15.359Z,27.36
2023-06-19T12:49:17.112Z,24.64
2023-06-19T12:52:18.819Z,25.62
2023-06-19T12:55:20.463Z,25.93
2023-06-19T12:58:22.135Z,25.65
2023-06-19T13:01:23.788Z,23.66
2023-06-19T13:04:25.478Z,24.98
2023-06-19T13:07:27.090Z,27.20
2023-06-19T13:10:28.730Z,25.73
2023-06-19T13:13:30.392Z,27.46
2023-06-19T13:16:45.439Z,23.14
2023-06-19T13:19:48.027Z,25.03
2023-06-19T13:22:49.645Z,24.39
2023-06-19T13:25:51.251Z,24.16
2023-06-19T13:28:53.114Z,23.65
2023-06-19T13:31:54.772Z,23.08
2023-06-19T13:34:57.254Z,26.52
2023-06-19T13:37:58.866Z,23.36
2023-06-19T13:41:00.510Z,28.84
2023-06-19T13:44:02.599Z,25.68
2023-06-19T13:47:04.906Z,24.09
2023-06-19T13:50:08.044Z,22.05
2023-06-19T13:53:09.930Z,24.59
2023-06-19T13:56:12.471Z,26.01
2023-06-19T13:59:14.779Z,24.20
2023-06-19T14:02:16.471Z,22.91
2023-06-19T14:05:18.287Z,23.64
2023-06-19T14:08:19.937Z,23.23
2023-06-19T14:11:21.924Z,24.35
2023-06-19T14:14:23.621Z,23.32
2023-06-19T14:17:25.629Z,25.31
2023-06-19T14:20:27.437Z,26.90
2023-06-19T14:23:29.149Z,22.37
2023-06-19T14:26:30.758Z,24.57
2023-06-19T14:29:38.849Z,24.82
2023-06-19T14:32:40.555Z,22.94
2023-06-19T14:35:45.837Z,24.00
2023-06-19T14:38:47.504Z,21.16
2023-06-19T14:41:49.154Z,23.46
2023-06-19T14:44:50.854Z,25.30
2023-06-19T14:47:52.536Z,23.76
2023-06-19T14:50:54.187Z,21.37
2023-06-19T14:53:56.001Z,22.98
2023-06-19T14:56:57.755Z,23.70
2023-06-19T14:59:59.401Z,22.31
2023-06-19T15:03:01.221Z,21.75
2023-06-19T15:06:03.743Z,22.58
2023-06-19T15:09:05.681Z,23.86
2023-06-19T15:12:07.724Z,24.46
2023-06-19T15:15:09.774Z,25.59
2023-06-19T15:18:11.583Z,21.99
2023-06-19T15:21:13.306Z,24.22
2023-06-19T15:24:15.307Z,22.96
2023-06-19T15:27:16.886Z,21.39
2023-06-19T15:30:18.533Z,24.58
2023-06-19T15:33:20.190Z,26.04
2023-06-19T15:36:21.878Z,24.67
2023-06-19T15:39:23.474Z,23.28
2023-06-19T15:42:25.154Z,23.82
2023-06-19T15:45:26.932Z,24.20
2023-06-19T15:48:29.475Z,22.01
2023-06-19T15:51:31.192Z,21.72
2023-06-19T15:54:32.858Z,23.64
2023-06-19T15:57:34.763Z,21.96
2023-06-19T16:00:36.476Z,23.68
2023-06-19T16:03:38.207Z,25.80
2023-06-19T16:06:40.992Z,23.67
2023-06-19T16:09:54.470Z,23.96
2023-06-19T16:12:57.016Z,27.24
2023-06-19T16:15:58.821Z,25.08
2023-06-19T16:19:00.538Z,23.42
2023-06-19T16:22:02.498Z,27.41
2023-06-19T16:25:04.595Z,27.20
2023-06-19T16:28:06.460Z,27.31
2023-06-19T16:31:09.283Z,25.86
2023-06-19T16:34:10.989Z,27.11
2023-06-19T16:37:12.751Z,29.53
2023-06-19T16:40:14.402Z,27.50
2023-06-19T16:43:16.076Z,28.47
2023-06-19T16:46:17.872Z,29.23
2023-06-19T16:49:20.173Z,29.17
2023-06-19T16:52:23.364Z,27.53
2023-06-19T16:55:25.587Z,28.82
2023-06-19T16:58:27.342Z,28.37
2023-06-19T17:01:28.975Z,29.60
2023-06-19T17:04:30.573Z,29.52
2023-06-19T17:07:32.232Z,29.35
2023-06-19T17:10:33.911Z,31.33
2023-06-19T17:13:35.525Z,31.27
2023-06-19T17:16:37.169Z,29.81
2023-06-19T17:19:39.313Z,33.62
2023-06-19T17:22:40.916Z,34.18
2023-06-19T17:25:42.596Z,36.58
2023-06-19T17:28:44.210Z,37.36
2023-06-19T17:31:45.827Z,38.86
2023-06-19T17:34:47.473Z,39.92
2023-06-19T17:37:49.110Z,40.77
2023-06-19T17:40:50.753Z,42.89
2023-06-19T17:43:52.409Z,43.95
2023-06-19T17:46:54.148Z,43.25
2023-06-19T17:49:55.920Z,42.22
2023-06-19T17:52:57.558Z,41.96
2023-06-19T17:56:01.725Z,41.50
2023-06-19T17:59:03.622Z,40.81
2023-06-19T18:02:05.569Z,42.44
2023-06-19T18:05:07.584Z,41.89
2023-06-19T18:08:09.704Z,44.37
2023-06-19T18:11:11.322Z,46.58
2023-06-19T18:14:12.957Z,46.70
2023-06-19T18:17:14.944Z,47.66
2023-06-19T18:20:16.777Z,49.52
2023-06-19T18:23:18.485Z,52.58
2023-06-19T18:26:20.177Z,55.62
2023-06-19T18:29:22.123Z,57.55
2023-06-19T18:32:23.827Z,53.69
2023-06-19T18:35:25.458Z,55.12
2023-06-19T18:38:27.114Z,56.07
2023-06-19T18:41:28.772Z,55.70
2023-06-19T18:44:30.486Z,56.68
2023-06-19T18:47:32.067Z,57.78
2023-06-19T18:50:33.901Z,58.09
2023-06-19T18:53:35.518Z,59.56
2023-06-19T18:56:38.231Z,59.49
2023-06-19T18:59:39.829Z,57.75
2023-06-19T19:02:41.679Z,59.25
2023-06-19T19:05:43.531Z,58.12
2023-06-19T19:08:45.331Z,57.79
2023-06-19T19:11:49.384Z,57.24
2023-06-19T19:14:52.286Z,57.39
2023-06-19T19:17:54.011Z,57.93
2023-06-19T19:20:55.673Z,57.42
2023-06-19T19:23:57.460Z,57.65
2023-06-19T19:26:59.251Z,57.56
2023-06-19T19:30:00.961Z,57.58
2023-06-19T19:33:02.725Z,58.70
2023-06-19T19:36:05.868Z,59.71
2023-06-19T19:39:07.467Z,60.11
2023-06-19T19:42:09.297Z,60.49
2023-06-19T19:45:11.246Z,60.70
2023-06-19T19:48:12.938Z,60.74
2023-06-19T19:51:15.450Z,60.96
2023-06-19T19:54:17.141Z,62.92
2023-06-19T19:57:18.798Z,63.31
2023-06-19T20:00:20.450Z,63.64
2023-06-19T20:03:22.217Z,64.25
2023-06-19T20:06:23.987Z,64.90
2023-06-19T20:09:25.606Z,64.27
2023-06-19T20:12:27.488Z,66.24
2023-06-19T20:15:29.116Z,65.09
2023-06-19T20:18:30.814Z,66.71
2023-06-19T20:21:32.515Z,66.65
2023-06-19T20:24:34.668Z,66.76
2023-06-19T20:27:36.446Z,68.56
2023-06-19T20:30:38.688Z,72.83
2023-06-19T20:33:40.320Z,70.74
2023-06-19T20:36:41.914Z,69.61
2023-06-19T20:39:43.534Z,69.43
2023-06-19T20:42:45.155Z,71.45
2023-06-19T20:45:46.768Z,73.79
2023-06-19T20:48:48.449Z,71.20
2023-06-19T20:51:51.537Z,73.29
2023-06-19T20:54:53.149Z,71.08
2023-06-19T20:57:54.867Z,75.11
2023-06-19T21:00:56.641Z,71.94
2023-06-19T21:04:02.532Z,76.80
2023-06-19T21:07:04.460Z,72.73
2023-06-19T21:10:06.558Z,71.97
2023-06-19T21:13:21.950Z,73.10
2023-06-19T21:16:25.609Z,73.00
2023-06-19T21:19:27.355Z,74.16
2023-06-19T21:22:28.969Z,74.30
2023-06-19T21:25:30.710Z,72.46
2023-06-19T21:28:33.039Z,72.60
2023-06-19T21:31:34.713Z,72.85
2023-06-19T21:34:36.342Z,73.78
2023-06-19T21:37:37.950Z,75.47
2023-06-19T21:40:39.614Z,74.30
2023-06-19T21:43:41.247Z,75.70
2023-06-19T21:46:43.055Z,75.42
2023-06-19T21:49:44.726Z,76.06
2023-06-19T21:52:46.595Z,75.40
2023-06-19T21:55:49.406Z,77.82
2023-06-19T21:58:51.008Z,75.76
2023-06-19T22:01:52.625Z,76.40
2023-06-19T22:04:54.261Z,80.21
2023-06-19T22:07:56.252Z,80.52
2023-06-19T22:10:57.992Z,79.58
2023-06-19T22:14:01.200Z,82.25
2023-06-19T22:17:04.896Z,84.11
2023-06-19T22:20:09.335Z,81.60
2023-06-19T22:23:11.105Z,80.05
2023-06-19T22:26:12.962Z,82.34
2023-06-19T22:29:14.641Z,80.78
2023-06-19T22:32:16.245Z,79.70
2023-06-19T22:35:17.920Z,79.44
2023-06-19T22:38:19.780Z,78.54
2023-06-19T22:41:21.842Z,78.04
2023-06-19T22:44:23.701Z,79.23
2023-06-19T22:47:25.370Z,80.86
2023-06-19T22:50:27.040Z,79.51
2023-06-19T22:53:31.436Z,81.26
2023-06-19T22:56:33.923Z,83.38
2023-06-19T22:59:35.797Z,82.06
2023-06-19T23:02:37.505Z,81.50
2023-06-19T23:05:39.155Z,80.67
2023-06-19T23:08:41.248Z,81.15
2023-06-19T23:11:43.113Z,82.62
2023-06-19T23:14:44.736Z,84.30
2023-06-19T23:17:46.454Z,84.64
2023-06-19T23:20:48.156Z,84.19
2023-06-19T23:23:50.008Z,85.96
2023-06-19T23:26:51.590Z,85.57
2023-06-19T23:29:53.260Z,85.95
2023-06-19T23:32:54.972Z,85.32
2023-06-19T23:35:57.640Z,85.76
2023-06-19T23:38:59.489Z,87.10
2023-06-19T23:42:03.954Z,68.96
2023-06-19T23:45:06.092Z,64.16
2023-06-19T23:48:07.752Z,63.77
2023-06-19T23:51:09.435Z,56.97
2023-06-19T23:54:11.086Z,38.83
2023-06-19T23:57:12.697Z,37.21
